createdAt,value
2018-06-01T00:02:10.141Z,6.90
2018-06-01T00:04:37.565Z,6.50
2018-06-01T00:07:05.687Z,7.10
2018-06-01T00:09:33.108Z,6.50
2018-06-01T00:12:01.312Z,6.73
2018-06-01T00:14:28.747Z,6.72
2018-06-01T00:16:57.051Z,7.62
2018-06-01T00:19:24.470Z,6.97
2018-06-01T00:21:52.748Z,7.10
2018-06-01T00:24:20.960Z,7.68
2018-06-01T00:26:48.403Z,7.70
2018-06-01T00:29:15.836Z,7.65
2018-06-01T00:31:44.072Z,7.60
2018-06-01T00:34:11.509Z,7.00
2018-06-01T00:36:38.952Z,8.20
2018-06-01T00:39:06.398Z,7.15
2018-06-01T00:41:33.824Z,7.05
2018-06-01T00:44:02.041Z,6.70
2018-06-01T00:46:29.485Z,7.28
2018-06-01T00:48:56.917Z,7.15
2018-06-01T00:51:24.345Z,6.85
2018-06-01T00:53:51.897Z,6.55
2018-06-01T00:56:19.338Z,6.43
2018-06-01T00:58:46.783Z,6.78
2018-06-01T01:01:14.209Z,6.75
2018-06-01T01:06:15.577Z,7.20
2018-06-01T01:08:43.017Z,6.20
2018-06-01T01:11:11.211Z,6.87
2018-06-01T01:13:38.645Z,6.73
2018-06-01T01:16:06.888Z,7.07
2018-06-01T01:18:34.344Z,7.60
2018-06-01T01:21:01.773Z,7.50
2018-06-01T01:23:29.214Z,7.17
2018-06-01T01:25:56.636Z,8.07
2018-06-01T01:28:24.853Z,7.33
2018-06-01T01:30:52.413Z,7.50
2018-06-01T01:33:19.829Z,7.50
2018-06-01T01:35:48.042Z,6.80
2018-06-01T01:38:15.483Z,7.18
2018-06-01T01:40:47.853Z,7.90
2018-06-01T01:43:15.326Z,6.60
2018-06-01T01:45:42.751Z,7.20
2018-06-01T01:48:10.959Z,7.33
2018-06-01T01:50:38.397Z,6.62
2018-06-01T01:53:05.851Z,6.60
2018-06-01T01:55:34.049Z,6.70
2018-06-01T01:58:01.489Z,7.03
2018-06-01T02:00:28.924Z,6.40
2018-06-01T02:02:57.125Z,6.60
2018-06-01T02:05:24.571Z,6.80
2018-06-01T02:07:51.997Z,7.12
2018-06-01T02:10:20.209Z,7.35
2018-06-01T02:12:47.641Z,6.72
2018-06-01T02:15:15.846Z,6.65
2018-06-01T02:17:43.276Z,6.53
2018-06-01T02:20:11.491Z,6.60
2018-06-01T02:22:38.921Z,6.30
2018-06-01T02:25:06.364Z,6.30
2018-06-01T02:27:34.575Z,6.45
2018-06-01T02:30:02.017Z,6.70
2018-06-01T02:32:29.469Z,6.97
2018-06-01T02:34:56.917Z,7.10
2018-06-01T02:37:24.412Z,6.70
2018-06-01T02:39:51.853Z,6.53
2018-06-01T02:42:19.319Z,6.68
2018-06-01T02:44:46.777Z,6.80
2018-06-01T02:47:14.224Z,6.80
2018-06-01T02:49:41.783Z,6.82
2018-06-01T02:52:09.195Z,6.50
2018-06-01T02:54:37.412Z,7.22
2018-06-01T02:57:04.848Z,6.65
2018-06-01T02:59:32.310Z,6.55
2018-06-01T03:01:59.731Z,6.37
2018-06-01T03:04:27.970Z,6.60
2018-06-01T03:07:10.681Z,6.93
2018-06-01T03:09:38.122Z,6.90
2018-06-01T03:12:05.576Z,6.65
2018-06-01T03:14:33.017Z,7.20
2018-06-01T03:17:00.465Z,6.70
2018-06-01T03:19:27.900Z,6.60
2018-06-01T03:21:56.117Z,6.72
2018-06-01T03:24:23.562Z,6.87
2018-06-01T03:26:50.988Z,6.78
2018-06-01T03:29:19.192Z,6.75
2018-06-01T03:31:46.652Z,7.00
2018-06-01T03:34:14.097Z,6.65
2018-06-01T03:36:41.524Z,6.82
2018-06-01T03:39:09.734Z,6.45
2018-06-01T03:41:37.168Z,7.00
2018-06-01T03:44:05.385Z,7.43
2018-06-01T03:46:32.825Z,6.90
2018-06-01T03:49:00.261Z,6.37
2018-06-01T03:51:27.697Z,7.00
2018-06-01T03:53:55.901Z,6.90
2018-06-01T03:56:23.383Z,7.00
2018-06-01T03:58:50.820Z,6.70
2018-06-01T04:01:18.252Z,6.62
2018-06-01T04:03:45.696Z,6.62
2018-06-01T04:06:13.129Z,6.60
2018-06-01T04:08:40.565Z,6.50
2018-06-01T04:11:08.015Z,7.15
2018-06-01T04:13:35.437Z,6.82
2018-06-01T04:16:02.894Z,7.07
2018-06-01T04:18:31.112Z,6.70
2018-06-01T04:20:58.649Z,6.82
2018-06-01T04:23:26.076Z,6.93
2018-06-01T04:25:54.333Z,6.80
2018-06-01T04:28:21.790Z,6.70
2018-06-01T04:30:49.236Z,6.85
2018-06-01T04:33:16.671Z,6.32
2018-06-01T04:35:44.207Z,7.10
2018-06-01T04:38:11.624Z,6.75
2018-06-01T04:40:39.838Z,7.05
2018-06-01T04:43:07.269Z,6.55
2018-06-01T04:45:35.460Z,7.80
2018-06-01T04:48:02.885Z,6.90
2018-06-01T04:50:31.094Z,6.63
2018-06-01T04:52:58.524Z,6.95
2018-06-01T04:55:26.725Z,6.53
2018-06-01T04:57:54.149Z,6.70
2018-06-01T05:00:22.364Z,7.28
2018-06-01T05:02:49.832Z,12.27
2018-06-01T05:05:17.272Z,6.75
2018-06-01T05:07:44.700Z,6.40
2018-06-01T05:10:12.161Z,7.78
2018-06-01T05:12:39.589Z,6.90
2018-06-01T05:15:07.094Z,7.30
2018-06-01T05:17:34.550Z,7.70
2018-06-01T05:20:01.994Z,7.25
2018-06-01T05:22:29.465Z,6.75
2018-06-01T05:24:56.901Z,8.40
2018-06-01T05:27:24.336Z,7.05
2018-06-01T05:29:52.549Z,7.20
2018-06-01T05:32:20.109Z,6.80
2018-06-01T05:34:47.539Z,6.40
2018-06-01T05:37:15.840Z,6.80
2018-06-01T05:39:43.336Z,7.30
2018-06-01T05:42:10.761Z,7.32
2018-06-01T05:44:38.188Z,6.87
2018-06-01T05:47:05.641Z,6.60
2018-06-01T05:49:33.834Z,7.10
2018-06-01T05:52:01.334Z,7.18
2018-06-01T05:54:28.846Z,6.32
2018-06-01T05:56:56.214Z,7.20
2018-06-01T05:59:23.700Z,7.10
2018-06-01T06:01:51.128Z,6.50
2018-06-01T06:04:18.576Z,6.10
2018-06-01T06:06:46.033Z,7.20
2018-06-01T06:09:13.469Z,8.10
2018-06-01T06:11:41.680Z,6.62
2018-06-01T06:14:09.128Z,7.10
2018-06-01T06:16:36.678Z,8.00
2018-06-01T06:19:04.101Z,6.72
2018-06-01T06:21:32.410Z,7.83
2018-06-01T06:23:59.866Z,7.60
2018-06-01T06:26:27.322Z,7.00
2018-06-01T06:28:54.801Z,7.53
2018-06-01T06:31:22.309Z,7.20
2018-06-01T06:33:49.720Z,6.80
2018-06-01T06:36:17.187Z,7.15
2018-06-01T06:38:44.745Z,7.32
2018-06-01T06:41:12.185Z,6.93
2018-06-01T06:43:39.640Z,7.35
2018-06-01T06:46:07.097Z,7.28
2018-06-01T06:48:34.561Z,7.60
2018-06-01T06:51:02.096Z,8.38
2018-06-01T06:53:29.561Z,7.10
2018-06-01T06:55:57.005Z,7.22
2018-06-01T06:58:24.541Z,7.90
2018-06-01T07:00:52.753Z,6.87
2018-06-01T07:03:20.299Z,7.47
2018-06-01T07:05:47.750Z,7.45
2018-06-01T07:08:15.212Z,7.50
2018-06-01T07:10:42.645Z,7.07
2018-06-01T07:13:10.846Z,7.10
2018-06-01T07:15:38.310Z,7.78
2018-06-01T07:18:05.745Z,7.30
2018-06-01T07:20:33.172Z,7.37
2018-06-01T07:23:02.224Z,8.10
2018-06-01T07:25:29.682Z,7.50
2018-06-01T07:27:57.236Z,7.07
2018-06-01T07:30:24.674Z,6.82
2018-06-01T07:32:52.291Z,7.50
2018-06-01T07:35:19.736Z,7.70
2018-06-01T07:37:47.173Z,7.12
2018-06-01T07:40:14.676Z,8.52
2018-06-01T07:42:42.869Z,8.17
2018-06-01T07:45:10.316Z,9.07
2018-06-01T07:47:37.752Z,8.70
2018-06-01T07:50:06.068Z,9.25
2018-06-01T07:52:33.499Z,8.25
2018-06-01T07:55:00.937Z,8.05
2018-06-01T07:57:28.409Z,8.13
2018-06-01T07:59:56.856Z,9.63
2018-06-01T08:02:24.252Z,8.25
2018-06-01T08:04:51.692Z,7.60
2018-06-01T08:07:19.913Z,8.52
2018-06-01T08:09:47.340Z,7.30
2018-06-01T08:12:14.852Z,8.70
2018-06-01T08:14:42.438Z,7.90
2018-06-01T08:17:09.837Z,8.45
2018-06-01T08:19:37.389Z,8.50
2018-06-01T08:22:04.832Z,7.70
2018-06-01T08:24:32.301Z,8.18
2018-06-01T08:26:59.744Z,7.90
2018-06-01T08:29:27.971Z,8.05
2018-06-01T08:31:55.492Z,8.00
2018-06-01T08:34:22.923Z,8.88
2018-06-01T08:36:51.174Z,8.65
2018-06-01T08:39:23.447Z,8.65
2018-06-01T08:41:50.874Z,9.10
2018-06-01T08:44:18.296Z,9.90
2018-06-01T08:46:45.797Z,8.20
2018-06-01T08:49:13.172Z,9.80
2018-06-01T08:51:41.465Z,9.40
2018-06-01T08:54:09.669Z,9.40
2018-06-01T08:56:37.117Z,9.10
2018-06-01T08:59:04.610Z,9.00
2018-06-01T09:01:32.035Z,9.68
2018-06-01T09:03:59.518Z,9.80
2018-06-01T09:06:27.021Z,9.80
2018-06-01T09:08:55.438Z,9.30
2018-06-01T09:11:22.991Z,10.30
2018-06-01T09:13:50.430Z,8.82
2018-06-01T09:16:17.989Z,9.60
2018-06-01T09:18:45.661Z,9.20
2018-06-01T09:21:13.118Z,9.40
2018-06-01T09:23:40.566Z,9.45
2018-06-01T09:26:08.059Z,9.40
2018-06-01T09:28:35.511Z,9.10
2018-06-01T09:31:02.952Z,9.57
2018-06-01T09:33:30.409Z,9.30
2018-06-01T09:35:57.864Z,9.27
2018-06-01T09:38:25.304Z,8.75
2018-06-01T09:40:52.785Z,10.75
2018-06-01T09:43:20.264Z,10.80
2018-06-01T09:45:47.733Z,10.23
2018-06-01T09:48:15.962Z,10.65
2018-06-01T09:50:43.421Z,10.65
2018-06-01T09:53:10.860Z,10.45
2018-06-01T09:55:38.311Z,9.80
2018-06-01T09:58:06.606Z,9.65
2018-06-01T10:00:39.884Z,10.15
2018-06-01T10:03:07.341Z,10.40
2018-06-01T10:05:34.773Z,10.77
2018-06-01T10:08:03.019Z,9.90
2018-06-01T10:10:36.429Z,10.82
2018-06-01T10:13:03.964Z,10.40
2018-06-01T10:15:31.439Z,10.20
2018-06-01T10:17:58.887Z,11.63
2018-06-01T10:20:26.320Z,10.27
2018-06-01T10:22:53.783Z,11.25
2018-06-01T10:25:21.339Z,10.73
2018-06-01T10:27:48.779Z,10.90
2018-06-01T10:30:16.216Z,10.95
2018-06-01T10:32:43.721Z,11.40
2018-06-01T10:35:11.321Z,10.75
2018-06-01T10:37:38.776Z,10.15
2018-06-01T10:40:06.987Z,11.82
2018-06-01T10:42:34.468Z,11.65
2018-06-01T10:45:01.933Z,11.30
2018-06-01T10:47:29.389Z,11.45
2018-06-01T10:49:56.822Z,11.52
2018-06-01T10:52:24.293Z,10.57
2018-06-01T10:54:52.317Z,11.20
2018-06-01T10:57:19.793Z,10.57
2018-06-01T10:59:47.237Z,11.90
2018-06-01T11:02:14.676Z,10.80
2018-06-01T11:04:42.916Z,10.55
2018-06-01T11:07:10.357Z,11.32
2018-06-01T11:09:37.906Z,11.95
2018-06-01T11:12:05.347Z,11.67
2018-06-01T11:14:32.873Z,11.00
2018-06-01T11:17:01.008Z,11.30
2018-06-01T11:19:28.472Z,11.27
2018-06-01T11:21:55.939Z,11.32
2018-06-01T11:24:23.493Z,12.45
2018-06-01T11:26:50.954Z,12.20
2018-06-01T11:29:18.397Z,11.98
2018-06-01T11:31:45.862Z,12.20
2018-06-01T11:34:13.294Z,11.73
2018-06-01T11:36:40.728Z,12.63
2018-06-01T11:39:08.157Z,12.00
2018-06-01T11:41:36.368Z,11.13
2018-06-01T11:44:03.847Z,11.73
2018-06-01T11:46:31.390Z,12.00
2018-06-01T11:48:58.877Z,11.93
2018-06-01T11:51:26.322Z,12.63
2018-06-01T11:53:53.750Z,13.00
2018-06-01T11:56:21.234Z,12.23
2018-06-01T11:58:48.704Z,11.85
2018-06-01T12:01:16.148Z,12.93
2018-06-01T12:03:43.613Z,12.52
2018-06-01T12:06:11.053Z,12.50
2018-06-01T12:08:38.489Z,12.67
2018-06-01T12:11:05.959Z,13.70
2018-06-01T12:13:33.516Z,12.88
2018-06-01T12:16:00.937Z,13.07
2018-06-01T12:18:28.410Z,12.57
2018-06-01T12:20:55.849Z,13.48
2018-06-01T12:23:24.089Z,12.30
2018-06-01T12:25:52.364Z,11.90
2018-06-01T12:28:19.809Z,13.53
2018-06-01T12:30:48.138Z,12.13
2018-06-01T12:33:16.427Z,13.60
2018-06-01T12:35:43.879Z,13.20
2018-06-01T12:38:11.362Z,12.43
2018-06-01T12:40:38.825Z,12.70
2018-06-01T12:43:06.262Z,12.75
2018-06-01T12:45:33.744Z,13.30
2018-06-01T12:48:01.198Z,13.10
2018-06-01T12:50:28.652Z,12.85
2018-06-01T12:52:56.098Z,14.48
2018-06-01T12:55:23.565Z,13.95
2018-06-01T12:57:50.997Z,13.23
2018-06-01T13:00:18.447Z,13.80
2018-06-01T13:02:45.947Z,13.62
2018-06-01T13:05:13.397Z,14.82
2018-06-01T13:07:40.856Z,14.40
2018-06-01T13:10:08.302Z,13.50
2018-06-01T13:12:35.848Z,14.30
2018-06-01T13:15:03.339Z,13.18
2018-06-01T13:17:30.786Z,13.98
2018-06-01T13:19:58.228Z,14.65
2018-06-01T13:22:25.688Z,15.02
2018-06-01T13:24:53.143Z,13.83
2018-06-01T13:27:20.581Z,13.27
2018-06-01T13:29:48.077Z,14.35
2018-06-01T13:32:15.521Z,14.70
2018-06-01T13:34:42.982Z,13.62
2018-06-01T13:37:10.417Z,13.05
2018-06-01T13:39:37.877Z,13.57
2018-06-01T13:42:05.353Z,13.47
2018-06-01T13:44:32.857Z,13.02
2018-06-01T13:47:01.070Z,13.07
2018-06-01T13:49:28.556Z,13.45
2018-06-01T13:51:55.996Z,13.93
2018-06-01T13:54:23.468Z,13.90
2018-06-01T13:56:50.933Z,14.82
2018-06-01T13:59:18.369Z,13.70
2018-06-01T14:01:45.910Z,15.20
2018-06-01T14:04:13.350Z,13.87
2018-06-01T14:06:40.814Z,15.43
2018-06-01T14:09:08.275Z,14.00
2018-06-01T14:11:35.756Z,13.90
2018-06-01T14:14:03.210Z,13.85
2018-06-01T14:16:30.643Z,13.95
2018-06-01T14:18:58.088Z,12.90
2018-06-01T14:21:25.522Z,13.40
2018-06-01T14:23:53.733Z,13.10
2018-06-01T14:26:21.169Z,13.15
2018-06-01T14:28:48.648Z,13.67
2018-06-01T14:31:16.064Z,14.07
2018-06-01T14:33:44.284Z,13.85
2018-06-01T14:36:11.764Z,13.77
2018-06-01T14:38:39.217Z,13.05
2018-06-01T14:41:07.635Z,12.90
2018-06-01T14:43:35.943Z,13.25
2018-06-01T14:46:03.525Z,13.90
2018-06-01T14:48:31.163Z,13.00
2018-06-01T14:50:58.726Z,13.30
2018-06-01T14:53:26.181Z,11.68
2018-06-01T14:55:53.742Z,12.05
2018-06-01T14:58:21.217Z,10.80
2018-06-01T15:00:48.675Z,10.03
2018-06-01T15:03:16.924Z,10.50
2018-06-01T15:05:44.352Z,9.80
2018-06-01T15:08:11.986Z,10.00
2018-06-01T15:10:39.419Z,9.50
2018-06-01T15:13:06.954Z,9.85
2018-06-01T15:15:34.398Z,10.73
2018-06-01T15:18:01.920Z,11.93
2018-06-01T15:20:29.425Z,10.00
2018-06-01T15:22:56.843Z,10.18
2018-06-01T15:25:25.158Z,9.80
2018-06-01T15:27:52.599Z,10.20
2018-06-01T15:30:20.028Z,9.50
2018-06-01T15:32:48.248Z,10.52
2018-06-01T15:35:15.680Z,9.20
2018-06-01T15:37:43.159Z,9.93
2018-06-01T15:40:10.636Z,9.63
2018-06-01T15:42:38.092Z,9.48
2018-06-01T15:45:05.721Z,9.40
2018-06-01T15:47:33.166Z,9.80
2018-06-01T15:50:01.436Z,10.85
2018-06-01T15:52:29.651Z,10.45
2018-06-01T15:54:57.076Z,10.80
2018-06-01T15:57:24.554Z,10.30
2018-06-01T15:59:52.110Z,9.50
2018-06-01T16:02:19.540Z,9.85
2018-06-01T16:04:47.169Z,10.20
2018-06-01T16:07:14.616Z,10.30
2018-06-01T16:09:42.141Z,10.50
2018-06-01T16:12:09.584Z,12.27
2018-06-01T16:14:37.044Z,11.18
2018-06-01T16:17:04.488Z,10.45
2018-06-01T16:19:31.949Z,11.53
2018-06-01T16:21:59.403Z,12.27
2018-06-01T16:24:26.865Z,13.02
2018-06-01T16:26:55.072Z,13.50
2018-06-01T16:29:22.540Z,13.02
2018-06-01T16:31:50.723Z,13.23
2018-06-01T16:34:18.264Z,13.23
2018-06-01T16:36:45.733Z,13.90
2018-06-01T16:39:13.216Z,14.25
2018-06-01T16:41:41.425Z,14.40
2018-06-01T16:44:08.980Z,15.30
2018-06-01T16:46:36.424Z,14.60
2018-06-01T16:49:03.901Z,13.40
2018-06-01T16:51:31.366Z,14.00
2018-06-01T16:53:58.821Z,13.82
2018-06-01T16:56:26.266Z,13.18
2018-06-01T16:58:53.831Z,12.70
2018-06-01T17:01:21.269Z,13.85
2018-06-01T17:03:49.162Z,13.07
2018-06-01T17:06:16.608Z,13.18
2018-06-01T17:08:44.115Z,13.40
2018-06-01T17:11:12.345Z,13.30
2018-06-01T17:13:39.810Z,13.27
2018-06-01T17:16:07.244Z,14.02
2018-06-01T17:18:34.737Z,13.75
2018-06-01T17:21:02.221Z,13.48
2018-06-01T17:23:30.453Z,14.03
2018-06-01T17:25:57.920Z,14.50
2018-06-01T17:28:25.404Z,14.20
2018-06-01T17:30:53.027Z,14.90
2018-06-01T17:33:20.494Z,15.70
2018-06-01T17:35:47.933Z,14.60
2018-06-01T17:38:16.477Z,15.13
2018-06-01T17:40:44.717Z,15.10
2018-06-01T17:43:12.187Z,15.35
2018-06-01T17:45:40.530Z,16.75
2018-06-01T17:48:07.990Z,15.65
2018-06-01T17:50:35.519Z,14.93
2018-06-01T17:53:02.998Z,14.90
2018-06-01T17:55:30.471Z,13.60
2018-06-01T17:57:57.966Z,13.60
2018-06-01T18:00:25.604Z,13.75
2018-06-01T18:02:53.102Z,14.50
2018-06-01T18:05:21.333Z,14.35
2018-06-01T18:07:48.811Z,13.90
2018-06-01T18:10:17.022Z,14.30
2018-06-01T18:12:44.496Z,12.85
2018-06-01T18:15:12.025Z,12.73
2018-06-01T18:17:40.302Z,12.20
2018-06-01T18:20:08.506Z,12.70
2018-06-01T18:22:36.035Z,12.75
2018-06-01T18:25:03.392Z,12.90
2018-06-01T18:27:30.837Z,12.40
2018-06-01T18:29:59.047Z,13.70
2018-06-01T18:32:26.547Z,13.40
2018-06-01T18:34:54.021Z,12.95
2018-06-01T18:37:22.257Z,13.63
2018-06-01T18:39:49.680Z,14.93
2018-06-01T18:42:17.148Z,16.60
2018-06-01T18:44:44.579Z,15.73
2018-06-01T18:47:12.037Z,18.10
2018-06-01T18:49:40.247Z,20.58
2018-06-01T18:52:07.792Z,18.33
2018-06-01T18:54:35.241Z,22.55
2018-06-01T18:57:02.691Z,24.55
2018-06-01T18:59:30.157Z,22.50
2018-06-01T19:01:58.528Z,22.65
2018-06-01T19:04:25.993Z,22.92
2018-06-01T19:06:53.425Z,25.60
2018-06-01T19:09:21.629Z,29.53
2018-06-01T19:11:49.072Z,27.35
2018-06-01T19:14:16.532Z,30.98
2018-06-01T19:16:44.096Z,37.63
2018-06-01T19:19:11.519Z,38.13
2018-06-01T19:21:39.754Z,36.67
2018-06-01T19:24:07.177Z,44.78
2018-06-01T19:26:34.636Z,40.75
2018-06-01T19:29:02.131Z,41.50
2018-06-01T19:31:29.532Z,40.42
2018-06-01T19:33:57.064Z,36.08
2018-06-01T19:36:24.543Z,24.95
2018-06-01T19:38:52.770Z,16.37
2018-06-01T19:41:20.213Z,11.30
2018-06-01T19:43:47.640Z,8.40
2018-06-01T19:46:15.085Z,9.60
2018-06-01T19:48:42.538Z,10.40
2018-06-01T19:51:10.750Z,12.48
2018-06-01T19:53:38.241Z,10.82
2018-06-01T19:56:05.688Z,13.73
2018-06-01T19:58:33.178Z,13.30
2018-06-01T20:01:00.648Z,12.50
2018-06-01T20:03:28.233Z,13.02
2018-06-01T20:05:55.661Z,14.48
2018-06-01T20:08:23.131Z,12.50
2018-06-01T20:10:50.570Z,15.27
2018-06-01T20:13:18.880Z,16.50
2018-06-01T20:15:46.349Z,14.50
2018-06-01T20:18:13.835Z,15.75
2018-06-01T20:20:41.284Z,13.93
2018-06-01T20:23:08.750Z,14.10
2018-06-01T20:25:36.193Z,15.18
2018-06-01T20:28:03.667Z,14.02
2018-06-01T20:30:31.090Z,14.30
2018-06-01T20:32:58.628Z,14.40
2018-06-01T20:35:26.187Z,17.08
2018-06-01T20:37:53.628Z,18.27
2018-06-01T20:40:21.206Z,18.90
2018-06-01T20:42:48.646Z,20.12
2018-06-01T20:45:16.154Z,17.70
2018-06-01T20:47:43.691Z,19.73
2018-06-01T20:50:11.133Z,21.10
2018-06-01T20:52:38.590Z,30.00
2018-06-01T20:55:06.031Z,22.50
2018-06-01T20:57:33.531Z,24.75
2018-06-01T21:00:01.029Z,24.12
2018-06-01T21:02:29.249Z,22.83
2018-06-01T21:04:56.813Z,24.97
2018-06-01T21:07:24.257Z,23.90
2018-06-01T21:09:51.712Z,35.17
2018-06-01T21:12:19.170Z,30.12
2018-06-01T21:14:46.624Z,23.10
2018-06-01T21:17:14.081Z,28.75
2018-06-01T21:19:41.538Z,25.48
2018-06-01T21:22:09.011Z,32.03
2018-06-01T21:24:36.476Z,23.98
2018-06-01T21:27:03.942Z,26.48
2018-06-01T21:29:31.445Z,25.27
2018-06-01T21:31:59.641Z,26.52
2018-06-01T21:34:27.197Z,25.85
2018-06-01T21:36:54.625Z,26.30
2018-06-01T21:39:22.063Z,27.35
2018-06-01T21:41:50.269Z,27.05
2018-06-01T21:44:17.777Z,26.60
2018-06-01T21:46:45.225Z,25.27
2018-06-01T21:49:12.689Z,27.02
2018-06-01T21:51:40.207Z,26.30
2018-06-01T21:54:07.643Z,26.17
2018-06-01T21:56:35.107Z,25.10
2018-06-01T21:59:02.554Z,25.60
2018-06-01T22:01:30.013Z,22.30
2018-06-01T22:03:58.237Z,20.90
2018-06-01T22:06:25.693Z,20.52
2018-06-01T22:08:53.156Z,20.40
2018-06-01T22:11:20.623Z,22.13
2018-06-01T22:13:48.061Z,23.05
2018-06-01T22:16:15.522Z,19.20
2018-06-01T22:18:42.990Z,22.05
2018-06-01T22:21:11.967Z,21.17
2018-06-01T22:23:39.432Z,21.83
2018-06-01T22:26:06.902Z,22.73
2018-06-01T22:28:34.353Z,21.90
2018-06-01T22:31:01.817Z,22.33
2018-06-01T22:33:29.356Z,22.77
2018-06-01T22:35:56.792Z,23.20
2018-06-01T22:38:24.234Z,24.60
2018-06-01T22:40:51.730Z,24.63
2018-06-01T22:43:19.162Z,26.87
2018-06-01T22:45:46.598Z,29.80
2018-06-01T22:48:14.036Z,28.20
2018-06-01T22:50:42.241Z,29.50
2018-06-01T22:53:09.701Z,29.80
2018-06-01T22:55:37.146Z,30.15
2018-06-01T22:58:04.601Z,29.87
2018-06-01T23:00:47.642Z,29.87
2018-06-01T23:03:15.102Z,29.50
2018-06-01T23:05:42.555Z,36.90
2018-06-01T23:08:10.009Z,34.97
2018-06-01T23:10:37.450Z,34.33
2018-06-01T23:13:04.914Z,34.50
2018-06-01T23:15:32.370Z,33.50
2018-06-01T23:17:59.827Z,32.72
2018-06-01T23:20:27.257Z,34.57
2018-06-01T23:22:54.697Z,34.38
2018-06-01T23:25:22.902Z,34.10
2018-06-01T23:27:50.344Z,34.80
2018-06-01T23:30:17.790Z,40.38
2018-06-01T23:32:46.103Z,40.07
2018-06-01T23:35:13.558Z,37.05
2018-06-01T23:37:41.014Z,38.80
2018-06-01T23:40:08.720Z,38.40
2018-06-01T23:42:36.158Z,38.20
2018-06-01T23:45:03.610Z,35.63
2018-06-01T23:47:31.053Z,34.93
2018-06-01T23:49:58.500Z,36.28
2018-06-01T23:52:25.963Z,38.90
2018-06-01T23:54:53.396Z,40.35
2018-06-01T23:57:20.841Z,40.75
2018-06-01T23:59:49.049Z,39.67
